Nearby METAR Reports

 

KSNA - John Wayne Airport, California, USA
Distance from station: NE 2mi, 3km
Updated: Fri, 21-Jun-2024 6:53pm PDT
Clear
Clear
 Wind from SSW
Wind: SSW 7 mph , 11 km/h
Temperature: 73°F , 23°C
Dew Point: 59°F , 15°C
Humidity: 61%
Barometer: 29.73 inHg , 1006.8 hPa
Clouds: Clear
Visibility: 10 miles , 16 km
2024/06/22 01:53 KSNA 220153Z 20006KT 10SM CLR 23/15 A2973 RMK AO2 SLP065 T02330150
KSLI - Los Alamitos Aaf, California, USA
Distance from station: NW 11mi, 18km
Updated: Fri, 21-Jun-2024 6:55pm PDT
Haze, Clear
Haze, Clear
 Wind from SSW
Wind: SSW 3 mph , 6 km/h
Temperature: 77°F , 25°C
Dew Point: 63°F , 17°C
Humidity: 61%
Barometer: 29.69 inHg , 1005.4 hPa
Summary: Haze
Clouds: Clear
Visibility: 4 miles , 6 km
2024/06/22 01:55 KSLI 220155Z AUTO 20003KT 4SM HZ CLR 25/17 A2969 RMK AO2 SLP057 T02500169
 
KFUL - Fullerton Muni, California, USA
Distance from station: NNW 16mi, 26km
Updated: Fri, 21-Jun-2024 6:53pm PDT
Clear
Clear
 Wind from W
Wind: W 5 mph , 7 km/h
Temperature: 81°F , 27°C
Heat Index: 81°F , 27°C
Dew Point: 55°F , 13°C
Humidity: 42%
Barometer: 29.71 inHg , 1006.1 hPa
Clouds: Clear
Visibility: 10 miles , 16 km
2024/06/22 01:53 KFUL 220153Z 27004KT 10SM CLR 27/13 A2971 RMK AO2 SLP059 T02720133
KLGB - Long Beach Muni, California, USA
Distance from station: NW 19mi, 30km
Updated: Fri, 21-Jun-2024 6:53pm PDT
Clear
Clear
 Wind from WNW
Wind: WNW 10 mph , 17 km/h
Temperature: 79°F , 26°C
Dew Point: 57°F , 14°C
Humidity: 48%
Barometer: 29.73 inHg , 1006.8 hPa
Clouds: Clear
Visibility: 10 miles , 16 km
2024/06/22 01:53 KLGB 220153Z 30009KT 10SM CLR 26/14 A2973 RMK AO2 SLP065 T02560139
 
KAJO - Corona Muni, California, USA
Distance from station: NE 24mi, 39km
Updated: Fri, 21-Jun-2024 6:56pm PDT
Clear
Clear
 Wind from WNW
Wind: WNW 13 mph , 20 km/h
Temperature: 82°F , 28°C
Heat Index: 82°F , 28°C
Dew Point: 59°F , 15°C
Humidity: 45%
Barometer: 29.72 inHg , 1006.4 hPa
Clouds: Clear
Visibility: 10 miles , 16 km
2024/06/22 01:56 KAJO 220156Z AUTO 30011KT 10SM CLR 28/15 A2972 RMK AO2 SLP060 T02780150
KTOA - Torrance Municip, California, USA
Distance from station: WNW 26mi, 42km
Updated: Fri, 21-Jun-2024 6:49pm PDT
Clear
Clear
 Wind from W
Wind: W 10 mph , 17 km/h
Temperature: 66°F , 19°C
Dew Point: 59°F , 15°C
Humidity: 78%
Barometer: 29.74 inHg , 1007.1 hPa
Clouds: Clear
Visibility: 10 miles , 16 km
2024/06/22 01:49 KTOA 220149Z 28009KT 10SM SKC 19/15 A2974
 
KCNO - Chino, California, USA
Distance from station: NE 28mi, 45km
Updated: Fri, 21-Jun-2024 6:53pm PDT
Clear
Clear
 Wind from WSW
Wind: WSW 12 mph , 19 km/h
Temperature: 82°F , 28°C
Heat Index: 82°F , 28°C
Dew Point: 59°F , 15°C
Humidity: 45%
Barometer: 29.73 inHg , 1006.8 hPa
Clouds: Clear
Visibility: 10 miles , 16 km
2024/06/22 01:53 KCNO 220153Z 25010KT 10SM CLR 28/15 A2973 RMK AO2 SLP061 T02830150
KEMT - El Monte, California, USA
Distance from station: NNW 30mi, 48km
Updated: Fri, 21-Jun-2024 6:45pm PDT
Clear
Clear
 Wind from S
Wind: S 10 mph , 17 km/h
Temperature: 82°F , 28°C
Heat Index: 81°F , 27°C
Dew Point: 55°F , 13°C
Humidity: 40%
Barometer: 29.72 inHg , 1006.4 hPa
Clouds: Clear
Visibility: 10 miles , 16 km
2024/06/22 01:45 KEMT 220145Z 19009KT 10SM CLR 28/13 A2972
 
KHHR - Hawthorne, California, USA
Distance from station: NW 31mi, 50km
Updated: Fri, 21-Jun-2024 6:53pm PDT
Clear
Clear
 Wind from WNW
Wind: WNW 7 mph , 11 km/h
Temperature: 70°F , 21°C
Dew Point: 54°F , 12°C
Humidity: 57%
Barometer: 29.74 inHg , 1007.1 hPa
Clouds: Clear
Visibility: 10 miles , 16 km
2024/06/22 01:53 KHHR 220153Z 29006KT 10SM CLR 21/12 A2974 RMK AO2 SLP069 T02110122
KPOC - La Verne/Bracket, California, USA
Distance from station: NNE 32mi, 52km
Updated: Fri, 21-Jun-2024 6:47pm PDT
Clear
Clear
 Wind from WSW
Wind: WSW 12 mph , 19 km/h
Temperature: 82°F , 28°C
Heat Index: 81°F , 27°C
Dew Point: 55°F , 13°C
Humidity: 40%
Barometer: 29.75 inHg , 1007.5 hPa
Clouds: Clear
Visibility: 10 miles , 16 km
2024/06/22 01:47 KPOC 220147Z 25010KT 10SM CLR 28/13 A2975
 
KONT - Ontario, California, USA
Distance from station: NNE 33mi, 53km
Updated: Fri, 21-Jun-2024 6:53pm PDT
Clear
Clear
 Wind from W
Wind: W 10 mph , 17 km/h
Temperature: 84°F , 29°C
Dew Point: 52°F , 11°C
Humidity: 33%
Barometer: 29.73 inHg , 1006.8 hPa
Clouds: Clear
Visibility: 10 miles , 16 km
2024/06/22 01:53 KONT 220153Z 26009KT 10SM CLR 29/11 A2973 RMK AO2 SLP052 T02940111
KRAL - Riverside, California, USA
Distance from station: NE 33mi, 53km
Updated: Fri, 21-Jun-2024 6:53pm PDT
Clear
Clear
 Wind from W
Wind: W 12 mph , 19 km/h
Temperature: 84°F , 29°C
Heat Index: 83°F , 28°C
Dew Point: 57°F , 14°C
Humidity: 40%
Barometer: 29.72 inHg , 1006.4 hPa
Clouds: Clear
Visibility: 10 miles , 16 km
2024/06/22 01:53 KRAL 220153Z 27010KT 10SM CLR 29/14 A2972 RMK AO2 SLP049 T02890144
 
KCQT - USC/Los Angeles, California, USA
Distance from station: NW 34mi, 54km
Updated: Mon, 20-May-2024 7:47am PDT
NOT Current
Overcast
Overcast
 Wind from calm
Wind: Calm
Temperature: 61°F , 16°C
Dew Point: 52°F , 11°C
Humidity: 72%
Barometer: 30.01 inHg , 1016.3 hPa
Clouds: Overcast
Visibility: 10 miles , 16 km
Cloud details: Overcast 2500 ft
2024/05/20 14:47 KCQT 201447Z AUTO 00000KT 10SM OVC025 16/11 A3001 RMK AO2 SLP161 T01560111 53013
KLAX - LAX/Los Angeles, California, USA
Distance from station: NW 34mi, 55km
Updated: Fri, 21-Jun-2024 7:29pm PDT
unable to load KLAX data RC=
unable to load KLAX data RC=
 
 
KAVX - Avalon, California, USA
Distance from station: WSW 35mi, 56km
Updated: Fri, 21-Jun-2024 6:51pm PDT
Clear
Clear
 Wind from calm
Wind: Calm
Temperature: 73°F , 23°C
Dew Point: 55°F , 13°C
Humidity: 53%
Barometer: 29.79 inHg , 1008.8 hPa
Clouds: Clear
Visibility: 10 miles , 16 km
2024/06/22 01:51 KAVX 220151Z AUTO 00000KT 10SM CLR 23/13 A2979 RMK AO2 SLP066 T02330133 $